Home > Products > Valid Products > MTR

000
SAUS43 KABR 251057
MTR8D3
METAR K8D3 251056Z AUTO 13006KT 17/17 A2968 RMK AO1 SLP037 T01720172
$





000
SAUS43 KABR 250957
MTR8D3
METAR K8D3 250956Z AUTO 14007KT 18/18 A2968 RMK AO1 SLP038 T01780178
$





000
SAUS43 KABR 250858
MTR8D3
METAR K8D3 250856Z AUTO 20012G18KT 18/18 A2971 RMK AO1 SLP046 60016
T01830178 $





000
SAUS43 KABR 250757
MTR8D3
METAR K8D3 250756Z AUTO 14010KT 18/18 A2971 RMK AO1 SLP048 P0002
T01830178 $





000
SAUS43 KABR 250657
MTR8D3
METAR K8D3 250656Z AUTO 14011KT 18/17 A2974 RMK AO1 SLP062 P0014
T01780172 $





000
SAUS43 KABR 250557
MTR8D3
METAR K8D3 250556Z AUTO 17010KT 19/17 A2973 RMK AO1 SLP055 T01890167
10228 20183 402390133 56033





000
SAUS43 KABR 250457
MTR8D3
METAR K8D3 250456Z AUTO 16011G16KT 19/17 A2976 RMK AO1 SLP063
T01890167





000
SAUS43 KABR 250357
MTR8D3
METAR K8D3 250356Z AUTO 14010G16KT 19/17 A2979 RMK AO1 SLP072
T01940172





000
SAUS43 KABR 250257
MTR8D3
METAR K8D3 250256Z AUTO 11006KT 21/18 A2983 RMK AO1 SLP085 T02060178
55001





000
SAUS43 KABR 250157
MTR8D3
METAR K8D3 250156Z AUTO 19007KT 21/18 A2981 RMK AO1 SLP082 T02110178





000
SAUS43 KABR 250057
MTR8D3
METAR K8D3 250056Z AUTO 17008KT 22/18 A2983 RMK AO1 SLP090 T02220183





000
SAUS43 KABR 242357
MTR8D3
METAR K8D3 242356Z AUTO 17011KT 22/18 A2983 RMK AO1 SLP090 60035
T02170178 10228 20178 56010





000
SAUS43 KABR 242257
MTR8D3
METAR K8D3 242256Z AUTO 18015G22KT 22/17 A2984 RMK AO1 PK WND
18033/2205 SLP093 T02220167





000
SAUS43 KABR 242157
MTR8D3
METAR K8D3 242156Z AUTO 18022G31KT 22/17 A2985 RMK AO1 PK WND
17033/2101 SLP096 T02220172





000
SAUS43 KABR 242057
MTR8D3
METAR K8D3 242056Z AUTO 17015G27KT 23/19 A2986 RMK AO1 PK WND
18033/2016 SLP101 60035 T02280189 56078





000
SAUS43 KABR 241957
MTR8D3
METAR K8D3 241956Z AUTO 16018G26KT 21/19 A2990 RMK AO1 PK WND
15026/1948 SLP115 T02060189





000
SAUS43 KABR 241857
MTR8D3
METAR K8D3 241856Z AUTO 16013KT 18/18 A3001 RMK AO1 PK WND
33027/1805 WSHFT 1829 SLP154 P0035 T01780178





000
SAUS43 KABR 241851
MTR8D3
SPECI K8D3 241849Z AUTO 17014KT 18/17 A2999 RMK AO1 PK WND
33027/1805 WSHFT 1829 P0035 T01780172





000
SAUS43 KABR 241834
MTR8D3
SPECI K8D3 241833Z AUTO 13011G18KT 18/17 A3001 RMK AO1 PK WND
33027/1805 WSHFT 1813 P0034 T01780172





000
SAUS43 KABR 241814
MTR8D3
SPECI K8D3 241813Z AUTO 07010G27KT 18/17 A3010 RMK AO1 PK WND
33027/1805 P0023 T01780172





000
SAUS43 KABR 241757
MTR8D3
METAR K8D3 241756Z AUTO 01016G21KT 19/18 A3010 RMK AO1 PRESRR SLP185
P0025 60025 T01890178 10239 20144 53020





000
SAUS43 KABR 241657
MTR8D3
METAR K8D3 241656Z AUTO 15014G23KT 23/15 A2996 RMK AO1 SLP131
T02280150





000
SAUS43 KABR 241557
MTR8D3
METAR K8D3 241556Z AUTO 16015G20KT 22/14 A3000 RMK AO1 PRESFR SLP146
T02220144





000
SAUS43 KABR 241457
MTR8D3
METAR K8D3 241456Z AUTO 17011G17KT 22/14 A3004 RMK AO1 SLP158
T02170144 58017





000
SAUS43 KABR 241357
MTR8D3
METAR K8D3 241356Z AUTO 16011KT 20/15 A3006 RMK AO1 SLP164 T02000150





000
SAUS43 KABR 241257
MTR8D3
METAR K8D3 241256Z AUTO 16006KT 17/15 A3008 RMK AO1 SLP172 T01670150





000
SAUS43 KABR 241157
MTR8D3
METAR K8D3 241156Z AUTO 18003KT 14/14 A3009 RMK AO1 SLP177 T01440139
10156 20133 56013





000
SAUS43 KABR 241057
MTR8D3
METAR K8D3 241056Z AUTO 18003KT 14/13 A3010 RMK AO1 SLP180 T01390133





000
SAUS43 KABR 240957
MTR8D3
METAR K8D3 240956Z AUTO 15004KT 14/13 A3011 RMK AO1 SLP184 T01390133





000
SAUS43 KABR 240857
MTR8D3
METAR K8D3 240856Z AUTO 00000KT 14/14 A3013 RMK AO1 SLP192 T01390139
56010





000
SAUS43 KABR 240757
MTR8D3
METAR K8D3 240756Z AUTO 00000KT 14/13 A3014 RMK AO1 SLP192 T01390133





000
SAUS43 KABR 240657
MTR8D3
METAR K8D3 240656Z AUTO 00000KT 16/14 A3014 RMK AO1 SLP194 T01560144





000
SAUS43 KABR 240557
MTR8D3
METAR K8D3 240556Z AUTO 00000KT 16/14 A3016 RMK AO1 SLP201 T01560144
10256 20156 402670128 50001





000
SAUS43 KABR 240458
MTR8D3
METAR K8D3 240456Z AUTO 00000KT 17/16 A3017 RMK AO1 SLP203 T01670156





000
SAUS43 KABR 240357
MTR8D3
METAR K8D3 240356Z AUTO 00000KT 17/16 A3016 RMK AO1 SLP201 T01720156





000
SAUS43 KABR 240258
MTR8D3
METAR K8D3 240256Z AUTO 12003KT 19/16 A3016 RMK AO1 SLP200 T01890161
56008





000
SAUS43 KABR 240157
MTR8D3
METAR K8D3 240156Z AUTO 14003KT 21/17 A3016 RMK AO1 SLP201 T02110167





000
SAUS43 KABR 240057
MTR8D3
METAR K8D3 240056Z AUTO 12004KT 24/16 A3017 RMK AO1 SLP202 T02390161





000
SAUS43 KABR 232357
MTR8D3
METAR K8D3 232356Z AUTO 10004KT 26/14 A3018 RMK AO1 SLP207 T02560144
10267 20239 58018





000
SAUS43 KABR 232257
MTR8D3
METAR K8D3 232256Z AUTO 11006KT 26/14 A3020 RMK AO1 SLP215 T02560144





000
SAUS43 KABR 232157
MTR8D3
METAR K8D3 232156Z AUTO 00000KT 26/13 A3022 RMK AO1 SLP223 T02560128





000
SAUS43 KABR 232057
MTR8D3
METAR K8D3 232056Z AUTO VRB04KT 25/13 A3024 RMK AO1 SLP228 T02500133
58010





000
SAUS43 KABR 231957
MTR8D3
METAR K8D3 231956Z AUTO VRB03KT 26/14 A3025 RMK AO1 SLP232 T02610139





000
SAUS43 KABR 231857
MTR8D3
METAR K8D3 231856Z AUTO 17004KT 25/14 A3026 RMK AO1 SLP235 T02500139





000
SAUS43 KABR 231757
MTR8D3
METAR K8D3 231756Z AUTO 00000KT 24/13 A3027 RMK AO1 SLP237 T02440133
10244 20161 58007





000
SAUS43 KABR 231657
MTR8D3
METAR K8D3 231656Z AUTO VRB04KT 23/13 A3028 RMK AO1 SLP241 T02330133





000
SAUS43 KABR 231557
MTR8D3
METAR K8D3 231556Z AUTO 07003KT 23/16 A3029 RMK AO1 SLP246 T02280156





000
SAUS43 KABR 231457
MTR8D3
METAR K8D3 231456Z AUTO 00000KT 21/16 A3029 RMK AO1 SLP245 T02060156
51003





000
SAUS43 KABR 231357
MTR8D3
METAR K8D3 231356Z AUTO 00000KT 20/15 A3029 RMK AO1 SLP244 T02000150





000
SAUS43 KABR 231257
MTR8D3
METAR K8D3 231256Z AUTO 00000KT 18/15 A3029 RMK AO1 SLP242 T01830150





000
SAUS43 KABR 231157
MTR8D3
METAR K8D3 231156Z AUTO 00000KT 16/15 A3028 RMK AO1 SLP239 T01610150
10161 20128 50009





000
SAUS43 KABR 231057
MTR8D3
METAR K8D3 231056Z AUTO 00000KT 13/13 A3028 RMK AO1 SLP243 T01330128





000
SAUS43 KABR 230957
MTR8D3
METAR K8D3 230956Z AUTO 00000KT 13/13 A3026 RMK AO1 SLP236 T01330128





000
SAUS43 KABR 230857
MTR8D3
METAR K8D3 230856Z AUTO 35003KT 14/13 A3025 RMK AO1 SLP231 T01390133
51002





000
SAUS43 KABR 230757
MTR8D3
METAR K8D3 230756Z AUTO 00000KT 14/13 A3025 RMK AO1 SLP229 T01440133





000
SAUS43 KABR 230657
MTR8D3
METAR K8D3 230656Z AUTO 30005KT 15/14 A3026 RMK AO1 SLP234 T01500144





000
SAUS43 KABR 230557
MTR8D3
METAR K8D3 230556Z AUTO 34003KT 16/14 A3024 RMK AO1 SLP228 T01560144
10250 20156 402670156 50004





000
SAUS43 KABR 230457
MTR8D3
METAR K8D3 230456Z AUTO 31003KT 16/16 A3025 RMK AO1 SLP232 T01610156





000
SAUS43 KABR 230357
MTR8D3
METAR K8D3 230356Z AUTO 31004KT 17/16 A3024 RMK AO1 SLP229 T01720156





000
SAUS43 KABR 230257
MTR8D3
METAR K8D3 230256Z AUTO 34003KT 18/16 A3023 RMK AO1 SLP225 T01830161
53018





000
SAUS43 KABR 230157
MTR8D3
METAR K8D3 230156Z AUTO 04005KT 20/17 A3020 RMK AO1 SLP214 T02000167





000
SAUS43 KABR 230057
MTR8D3
METAR K8D3 230056Z AUTO 05008KT 24/15 A3018 RMK AO1 SLP205 T02390150





000
SAUS43 KABR 222357
MTR8D3
METAR K8D3 222356Z AUTO 02010KT 26/15 A3018 RMK AO1 SLP202 T02560150
10267 20250 50006





000
SAUS43 KABR 222257
MTR8D3
METAR K8D3 222256Z AUTO 03009KT 26/15 A3018 RMK AO1 SLP203 T02610150





000
SAUS43 KABR 222157
MTR8D3
METAR K8D3 222156Z AUTO 03009KT 27/15 A3017 RMK AO1 SLP198 T02670150





000
SAUS43 KABR 222057
MTR8D3
METAR K8D3 222056Z AUTO 02014G19KT 26/15 A3016 RMK AO1 SLP195
T02610150 52013





000
SAUS43 KABR 221957
MTR8D3
METAR K8D3 221956Z AUTO 02012KT 26/15 A3014 RMK AO1 SLP190 T02610150





000
SAUS43 KABR 221857
MTR8D3
METAR K8D3 221856Z AUTO 04012G19KT 26/14 A3013 RMK AO1 SLP187
T02560139





000
SAUS43 KABR 221757
MTR8D3
METAR K8D3 221756Z AUTO 02015KT 26/14 A3012 RMK AO1 SLP181 T02560144
10256 20189 51011





000
SAUS43 KABR 221657
MTR8D3
METAR K8D3 221656Z AUTO 02013KT 25/16 A3011 RMK AO1 SLP180 T02500156





000
SAUS43 KABR 221557
MTR8D3
METAR K8D3 221556Z AUTO 02014KT 23/16 A3010 RMK AO1 SLP174 T02280161





000
SAUS43 KABR 221457
MTR8D3
METAR K8D3 221456Z AUTO 01015KT 22/17 A3008 RMK AO1 SLP170 T02170167
51022





000
SAUS43 KABR 221357
MTR8D3
METAR K8D3 221356Z AUTO 36015KT 21/17 A3008 RMK AO1 SLP166 T02110167





000
SAUS43 KABR 221257
MTR8D3
METAR K8D3 221256Z AUTO 36013KT 20/18 A3004 RMK AO1 SLP155 T02000183





000
SAUS43 KABR 221158
MTR8D3
METAR K8D3 221156Z AUTO 34008KT 19/18 A3002 RMK AO1 SLP144 T01890183
10206 20183 51034





    US Dept of Commerce
    National Oceanic and Atmospheric Administration
    National Weather Service
    1325 East West Highway
    Silver Spring, MD 20910
    Page Author: NWS Internet Services Team
Disclaimer
Information Quality
Credits
Glossary
Privacy Policy
Freedom of Information Act (FOIA)
About Us
Career Opportunities